»·PEaware :: TPX763 KLAS-KSAN

TPX763 :: KLAS-KSAN

FLIGHT INFORMATION

Flight Status: Arrived
Operator: ATP Experience
More flights by this operator :: More flights under this callsign
Pilot: Dave P. (45)
Aircraft: BOEING 737-600
(B736)
More flights by this aircraft type
Origin: KLAS McCarran Intl
United States
Destination: KSAN San Diego Intl-Lindbergh
United States
More flights between these airports :: More routes between these airports
Route: +BOACH8 LVELL LUCKI1
File this flight plan on PilotEdge
Remarks: PBN / A1B1C1D1S1S2 DOF / 181007 REG / N736PM OPR / TPX PER / C RMK / TCAS SIMBRIEF
Altitude:
(Current/Filed)
29,000ft
Speed:
(Current/Filed)
446kts
Departed: 07-Oct-18 09:06 AM
Arrived: 07-Oct-18 09:49 AM
Distance/Time
Traveled:
225nm/0:42
Distance/Time
To Go:
Arrived

Flight Plot

Page will automatically refresh every two minutes.

Flight plan parsing failed; only flown route is shown


Map Options




Map Legend


Flown Route
Filed Route
Departure Airport
Arrival Airport
Navaid (VOR, NDB)
Fix

Horizontal Profiles

Position Reports

Time Latitude Longitude Heading Altitude Ground
Speed
07-Oct-18 08:12 36.080832 -115.138382 313 2122ft 0kts
07-Oct-18 08:13 36.080832 -115.138382 313 2122ft 0kts
07-Oct-18 08:14 36.080832 -115.138382 313 2122ft 0kts
07-Oct-18 08:15 36.080832 -115.138382 313 2122ft 0kts
07-Oct-18 08:16 36.080832 -115.138382 313 2122ft 0kts
07-Oct-18 08:17 36.080832 -115.138382 313 2122ft 0kts
07-Oct-18 08:18 36.080832 -115.138382 313 2122ft 0kts
07-Oct-18 08:19 36.080832 -115.138382 313 2122ft 0kts
07-Oct-18 08:20 36.080832 -115.138382 313 2122ft 0kts
07-Oct-18 08:21 36.080832 -115.138382 313 2122ft 0kts
07-Oct-18 08:22 36.080832 -115.138382 313 2122ft 0kts
07-Oct-18 08:23 36.080832 -115.138382 313 2122ft 0kts
07-Oct-18 08:24 36.080832 -115.138382 313 2122ft 0kts
07-Oct-18 08:25 36.080832 -115.138382 313 2122ft 0kts
07-Oct-18 08:26 36.080832 -115.138382 313 2122ft 0kts
07-Oct-18 08:27 36.080832 -115.138382 313 2122ft 0kts
07-Oct-18 08:28 36.080832 -115.138382 313 2122ft 0kts
07-Oct-18 08:29 36.080832 -115.138382 313 2122ft 0kts
07-Oct-18 08:30 36.080832 -115.138382 313 2122ft 0kts
07-Oct-18 08:31 36.080832 -115.138382 313 2122ft 0kts
07-Oct-18 08:32 36.080832 -115.138382 313 2122ft 0kts
07-Oct-18 08:33 36.080832 -115.138382 313 2122ft 0kts
07-Oct-18 08:34 36.080832 -115.138382 313 2122ft 0kts
07-Oct-18 08:35 36.080832 -115.138382 313 2122ft 0kts
07-Oct-18 08:36 36.080832 -115.138382 313 2122ft 0kts
07-Oct-18 08:37 36.080832 -115.138382 313 2122ft 0kts
07-Oct-18 08:38 36.080832 -115.138382 313 2122ft 0kts
07-Oct-18 08:39 36.080832 -115.138382 313 2122ft 0kts
07-Oct-18 08:40 36.080832 -115.138382 313 2122ft 0kts
07-Oct-18 08:41 36.080832 -115.138382 313 2122ft 0kts
07-Oct-18 08:42 36.080832 -115.138382 313 2122ft 0kts
07-Oct-18 08:43 36.080832 -115.138382 313 2122ft 0kts
07-Oct-18 08:44 36.080832 -115.138382 313 2122ft 0kts
07-Oct-18 08:45 36.080832 -115.138382 313 2122ft 0kts
07-Oct-18 08:46 36.080832 -115.138382 313 2122ft 0kts
07-Oct-18 08:47 36.080832 -115.138382 313 2122ft 0kts
07-Oct-18 08:48 36.080832 -115.138382 313 2122ft 0kts
07-Oct-18 08:49 36.080832 -115.138382 313 2122ft 0kts
07-Oct-18 08:50 36.080832 -115.138382 313 2122ft 0kts
07-Oct-18 08:51 36.080832 -115.138382 313 2122ft 0kts
07-Oct-18 08:52 36.080832 -115.138382 313 2122ft 0kts
07-Oct-18 08:53 36.080832 -115.138382 313 2122ft 0kts
07-Oct-18 08:54 36.080832 -115.138382 313 2122ft 0kts
07-Oct-18 08:55 36.080832 -115.138382 313 2122ft 0kts
07-Oct-18 08:56 36.080832 -115.138382 313 2122ft 0kts
07-Oct-18 08:57 36.080832 -115.138382 313 2122ft 0kts
07-Oct-18 08:58 36.080832 -115.138382 313 2122ft 0kts
07-Oct-18 08:59 36.080733 -115.138254 313 2122ft 2kts
07-Oct-18 09:00 36.080345 -115.137751 313 2122ft 0kts
07-Oct-18 09:01 36.080345 -115.137751 313 2122ft 0kts
07-Oct-18 09:02 36.079612 -115.136750 130 2122ft 15kts
07-Oct-18 09:03 36.079337 -115.136359 131 2122ft 4kts
07-Oct-18 09:04 36.078240 -115.132138 89 2122ft 22kts
07-Oct-18 09:05 36.078226 -115.124716 89 2122ft 20kts
07-Oct-18 09:06 36.077073 -115.121284 180 2122ft 0kts
07-Oct-18 09:07 36.077071 -115.121284 180 2122ft 0kts
07-Oct-18 09:08 36.076348 -115.124416 270 2123ft 52kts
07-Oct-18 09:09 36.075556 -115.170614 272 3479ft 154kts
07-Oct-18 09:10 36.075685 -115.233402 263 5130ft 228kts
07-Oct-18 09:11 36.015827 -115.280933 199 7005ft 297kts
07-Oct-18 09:12 35.935349 -115.306669 187 8306ft 305kts
07-Oct-18 09:13 35.847612 -115.314511 178 11585ft 338kts
07-Oct-18 09:14 35.745358 -115.302429 174 14151ft 386kts
07-Oct-18 09:15 35.635881 -115.295381 183 17553ft 403kts
07-Oct-18 09:16 35.521373 -115.300864 182 20219ft 417kts
07-Oct-18 09:17 35.403779 -115.305530 182 23128ft 431kts
07-Oct-18 09:18 35.281434 -115.310346 183 25431ft 450kts
07-Oct-18 09:19 35.153241 -115.315381 183 27349ft 470kts
07-Oct-18 09:20 35.020719 -115.320600 184 28837ft 481kts
07-Oct-18 09:21 34.887440 -115.325809 184 28851ft 478kts
07-Oct-18 09:22 34.755796 -115.342178 199 28856ft 472kts
07-Oct-18 09:23 34.632741 -115.395256 205 28866ft 470kts
07-Oct-18 09:24 34.509645 -115.449585 205 28881ft 472kts
07-Oct-18 09:25 34.385802 -115.503495 205 28893ft 472kts
07-Oct-18 09:26 34.268993 -115.571072 218 28899ft 464kts
07-Oct-18 09:27 34.152872 -115.642704 207 28882ft 475kts
07-Oct-18 09:28 34.029396 -115.700336 207 28873ft 475kts
07-Oct-18 09:29 33.906328 -115.758347 209 28857ft 475kts
07-Oct-18 09:30 33.784250 -115.818328 209 28835ft 473kts
07-Oct-18 09:31 33.661413 -115.876211 208 28810ft 473kts
07-Oct-18 09:32 33.541218 -115.934998 217 26386ft 451kts
07-Oct-18 09:33 33.461116 -116.037519 241 24110ft 411kts
07-Oct-18 09:34 33.396166 -116.149398 241 22073ft 403kts
07-Oct-18 09:35 33.325980 -116.252057 222 20065ft 408kts
07-Oct-18 09:36 33.226570 -116.315444 212 18034ft 400kts
07-Oct-18 09:37 33.126976 -116.373408 212 16247ft 396kts
07-Oct-18 09:38 33.030481 -116.429636 211 14341ft 372kts
07-Oct-18 09:39 32.951824 -116.497711 226 12638ft 336kts
07-Oct-18 09:40 32.884374 -116.566415 225 11060ft 297kts
07-Oct-18 09:41 32.822873 -116.628385 224 9631ft 287kts
07-Oct-18 09:42 32.766764 -116.692902 240 8223ft 272kts
07-Oct-18 09:43 32.730554 -116.769316 244 6856ft 251kts
07-Oct-18 09:44 32.700628 -116.838642 252 5661ft 226kts
07-Oct-18 09:45 32.680180 -116.907330 253 4826ft 206kts
07-Oct-18 09:46 32.679978 -116.970510 287 3707ft 195kts
07-Oct-18 09:47 32.695306 -117.031995 286 3054ft 192kts
07-Oct-18 09:48 32.709431 -117.090168 284 1885ft 173kts
07-Oct-18 09:49 32.721516 -117.140002 283 894ft 139kts
07-Oct-18 09:50 32.731797 -117.182361 282 25ft 127kts
07-Oct-18 09:51 32.734066 -117.194928 178 23ft 0kts
07-Oct-18 09:52 32.733811 -117.194814 131 23ft 8kts
07-Oct-18 09:53 32.732845 -117.195235 274 23ft 5kts
07-Oct-18 09:54 32.732867 -117.195544 274 23ft 0kts
07-Oct-18 09:55 32.732867 -117.195544 274 23ft 0kts
07-Oct-18 09:56 32.732867 -117.195544 274 23ft 0kts
07-Oct-18 09:57 32.732867 -117.195544 274 23ft 0kts
07-Oct-18 09:58 32.732867 -117.195544 274 23ft 0kts
07-Oct-18 09:59 32.732867 -117.195544 274 23ft 0kts

Navigation Log

Ident Type
Flight plan parsing failed, navigation log unavailable